Sea Amore — H9OC — position and weather

sailwx.info

Track history (hours):
 
Tides and Currents Weather Stations Pressure Air Temp Water Temp Dewpoint Dewpoint Depression Visibility Wind Speed Wind Dir Waves Ship Positions

Sea Amore

Last reported at 2014-Oct-20 16:13 UTC. Time now 2014-Oct-25 17:36 UTC.
Position N 36°39' E 026°50'.

Length 148 m; draft 9 m.

Type: Cargo ship. MMSI: 357019000.

Date/timePositionNaut miles runAvg speedWind from/ knotsBaromVisibWave heightAir tempDewpointWater temp
2014-Oct-20 16:13N 36°39' E 026°50'1112.2
2014-Oct-20 15:19N 36°44' E 026°38'1012.5
2014-Oct-20 14:33N 36°49' E 026°28'1612.3
2014-Oct-20 13:16N 36°58' E 026°12'912.0
2014-Oct-20 12:33N 37°03' E 026°03'1212.3
2014-Oct-20 11:33N 37°10' E 025°50'1111.6
2014-Oct-20 10:34N 37°13' E 025°36'1110.7
2014-Oct-20 09:33N 37°16' E 025°23'1111.5
2014-Oct-20 08:33N 37°19' E 025°09'1010.4
2014-Oct-20 07:33N 37°22' E 024°57'0 0.4
2014-Oct-20 06:34N 37°22' E 024°56'0 0.0
2014-Oct-20 05:33N 37°22' E 024°56'0 0.0
2014-Oct-20 04:33N 37°22' E 024°56'0 0.0
2014-Oct-20 03:31N 37°22' E 024°56'0 0.0
2014-Oct-20 02:33N 37°22' E 024°56'0 0.0
2014-Oct-20 01:30N 37°22' E 024°56'0 0.0
2014-Oct-20 00:33N 37°22' E 024°56'0 0.0
2014-Oct-19 23:26N 37°22' E 024°56'0 0.0
2014-Oct-19 22:33N 37°22' E 024°56'3 3.2
2014-Oct-19 21:33N 37°20' E 024°54'10 9.6
2014-Oct-19 20:33N 37°13' E 024°46'10 9.7
2014-Oct-19 19:33N 37°07' E 024°36'1010.0
2014-Oct-19 18:33N 37°01' E 024°26'9 9.0
2014-Oct-19 17:33N 36°56' E 024°17'8 8.4
2014-Oct-19 16:33N 36°51' E 024°08'9 8.7
2014-Oct-19 15:33N 36°46' E 023°59'12 9.0
2014-Oct-19 14:14N 36°40' E 023°47'42011.3
2014-Oct-18 01:15N 36°28' E 015°05'912.9
2014-Oct-18 00:33N 36°28' E 014°53'1313.1
2014-Oct-17 23:33N 36°28' E 014°37'1312.8
2014-Oct-17 22:33N 36°31' E 014°22'1312.8
2014-Oct-17 21:33N 36°35' E 014°07'1312.7
2014-Oct-17 20:33N 36°39' E 013°52'1212.4
2014-Oct-17 19:33N 36°43' E 013°37'1212.2
2014-Oct-17 18:33N 36°47' E 013°22'1211.9
2014-Oct-17 17:33N 36°50' E 013°08'1212.1
2014-Oct-17 16:33N 36°53' E 012°53'1212.3
2014-Oct-17 15:33N 36°56' E 012°39'1312.5
2014-Oct-17 14:33N 37°00' E 012°24'1212.4
2014-Oct-17 13:33N 37°04' E 012°09'1512.5
2014-Oct-17 12:21N 37°09' E 011°51'1512.4
2014-Oct-17 11:10N 37°14' E 011°34'712.4
2014-Oct-17 10:33N 37°17' E 011°25'1312.5
2014-Oct-17 09:33N 37°21' E 011°10'1812.8
2014-Oct-17 08:08N 37°26' E 010°48'813.1
2014-Oct-17 07:33N 37°28' E 010°39'45212.9
2014-Oct-15 20:29N 36°51' E 001°14'1314.0
2014-Oct-15 19:32N 36°49' E 000°58'1313.6
2014-Oct-15 18:33N 36°46' E 000°41'28613.0
2014-Oct-14 20:33N 35°59' W 005°09'1514.7
2014-Oct-14 19:33N 35°57' W 005°27'  
Track history (hours):
 
Tides and Currents Weather Stations Pressure Air Temp Water Temp Dewpoint Dewpoint Depression Visibility Wind Speed Wind Dir Waves Ship Positions

Sea Amore

Last reported at 2014-Oct-20 16:13 UTC. Time now 2014-Oct-25 17:36 UTC.
Position N 36°39' E 026°50'.

Length 148 m; draft 9 m.

Type: Cargo ship. MMSI: 357019000.

Date/timePositionNaut miles runAvg speedWind from/ knotsBaromVisibWave heightAir tempDewpointWater temp
2014-Oct-20 16:13N 36°39' E 026°50'1112.2
2014-Oct-20 15:19N 36°44' E 026°38'1012.5
2014-Oct-20 14:33N 36°49' E 026°28'1612.3
2014-Oct-20 13:16N 36°58' E 026°12'912.0
2014-Oct-20 12:33N 37°03' E 026°03'1212.3
2014-Oct-20 11:33N 37°10' E 025°50'1111.6
2014-Oct-20 10:34N 37°13' E 025°36'1110.7
2014-Oct-20 09:33N 37°16' E 025°23'1111.5
2014-Oct-20 08:33N 37°19' E 025°09'1010.4
2014-Oct-20 07:33N 37°22' E 024°57'0 0.4
2014-Oct-20 06:34N 37°22' E 024°56'0 0.0
2014-Oct-20 05:33N 37°22' E 024°56'0 0.0
2014-Oct-20 04:33N 37°22' E 024°56'0 0.0
2014-Oct-20 03:31N 37°22' E 024°56'0 0.0
2014-Oct-20 02:33N 37°22' E 024°56'0 0.0
2014-Oct-20 01:30N 37°22' E 024°56'0 0.0
2014-Oct-20 00:33N 37°22' E 024°56'0 0.0
2014-Oct-19 23:26N 37°22' E 024°56'0 0.0
2014-Oct-19 22:33N 37°22' E 024°56'3 3.2
2014-Oct-19 21:33N 37°20' E 024°54'10 9.6
2014-Oct-19 20:33N 37°13' E 024°46'10 9.7
2014-Oct-19 19:33N 37°07' E 024°36'1010.0
2014-Oct-19 18:33N 37°01' E 024°26'9 9.0
2014-Oct-19 17:33N 36°56' E 024°17'8 8.4
2014-Oct-19 16:33N 36°51' E 024°08'9 8.7
2014-Oct-19 15:33N 36°46' E 023°59'12 9.0
2014-Oct-19 14:14N 36°40' E 023°47'42011.3
2014-Oct-18 01:15N 36°28' E 015°05'912.9
2014-Oct-18 00:33N 36°28' E 014°53'1313.1
2014-Oct-17 23:33N 36°28' E 014°37'1312.8
2014-Oct-17 22:33N 36°31' E 014°22'1312.8
2014-Oct-17 21:33N 36°35' E 014°07'1312.7
2014-Oct-17 20:33N 36°39' E 013°52'1212.4
2014-Oct-17 19:33N 36°43' E 013°37'1212.2
2014-Oct-17 18:33N 36°47' E 013°22'1211.9
2014-Oct-17 17:33N 36°50' E 013°08'1212.1
2014-Oct-17 16:33N 36°53' E 012°53'1212.3
2014-Oct-17 15:33N 36°56' E 012°39'1312.5
2014-Oct-17 14:33N 37°00' E 012°24'1212.4
2014-Oct-17 13:33N 37°04' E 012°09'1512.5
2014-Oct-17 12:21N 37°09' E 011°51'1512.4
2014-Oct-17 11:10N 37°14' E 011°34'712.4
2014-Oct-17 10:33N 37°17' E 011°25'1312.5
2014-Oct-17 09:33N 37°21' E 011°10'1812.8
2014-Oct-17 08:08N 37°26' E 010°48'813.1
2014-Oct-17 07:33N 37°28' E 010°39'45212.9
2014-Oct-15 20:29N 36°51' E 001°14'1314.0
2014-Oct-15 19:32N 36°49' E 000°58'1313.6
2014-Oct-15 18:33N 36°46' E 000°41'28613.0
2014-Oct-14 20:33N 35°59' W 005°09'1514.7
2014-Oct-14 19:33N 35°57' W 005°27'  

Dump ship's entire track history